sensor_id;sensor_type;location;lat;lon;timestamp;temperature;humidity
14682;DHT22;7429;52.498;13.480;2022-08-03T00:02:57;19.90;99.90
14682;DHT22;7429;52.498;13.480;2022-08-03T00:06:02;19.90;99.90
14682;DHT22;7429;52.498;13.480;2022-08-03T00:09:06;19.90;99.90
14682;DHT22;7429;52.498;13.480;2022-08-03T00:12:09;19.90;99.90
14682;DHT22;7429;52.498;13.480;2022-08-03T00:15:12;19.90;99.90
14682;DHT22;7429;52.498;13.480;2022-08-03T00:18:17;19.90;99.90
14682;DHT22;7429;52.498;13.480;2022-08-03T00:21:22;19.90;99.90
14682;DHT22;7429;52.498;13.480;2022-08-03T00:24:25;19.90;99.90
14682;DHT22;7429;52.498;13.480;2022-08-03T00:27:28;19.90;99.90
14682;DHT22;7429;52.498;13.480;2022-08-03T00:30:33;19.90;99.90
14682;DHT22;7429;52.498;13.480;2022-08-03T00:33:36;19.90;99.90
14682;DHT22;7429;52.498;13.480;2022-08-03T00:37:01;19.90;99.90
14682;DHT22;7429;52.498;13.480;2022-08-03T00:40:05;19.90;99.90
14682;DHT22;7429;52.498;13.480;2022-08-03T00:43:09;19.80;99.90
14682;DHT22;7429;52.498;13.480;2022-08-03T00:46:12;19.80;99.90
14682;DHT22;7429;52.498;13.480;2022-08-03T00:49:22;19.80;99.90
14682;DHT22;7429;52.498;13.480;2022-08-03T00:52:27;19.70;99.90
14682;DHT22;7429;52.498;13.480;2022-08-03T00:55:30;19.70;99.90
14682;DHT22;7429;52.498;13.480;2022-08-03T00:58:33;19.70;99.90
14682;DHT22;7429;52.498;13.480;2022-08-03T01:01:36;19.70;99.90
14682;DHT22;7429;52.498;13.480;2022-08-03T01:04:41;19.70;99.90
14682;DHT22;7429;52.498;13.480;2022-08-03T01:07:59;19.80;99.90
14682;DHT22;7429;52.498;13.480;2022-08-03T01:11:11;19.80;99.90
14682;DHT22;7429;52.498;13.480;2022-08-03T01:14:23;19.80;99.90
14682;DHT22;7429;52.498;13.480;2022-08-03T01:17:35;19.90;99.90
14682;DHT22;7429;52.498;13.480;2022-08-03T01:20:44;19.90;99.90
14682;DHT22;7429;52.498;13.480;2022-08-03T01:24:00;19.90;99.90
14682;DHT22;7429;52.498;13.480;2022-08-03T01:27:09;19.90;99.90
14682;DHT22;7429;52.498;13.480;2022-08-03T01:30:16;19.90;99.90
14682;DHT22;7429;52.498;13.480;2022-08-03T01:33:25;19.90;99.90
14682;DHT22;7429;52.498;13.480;2022-08-03T01:36:35;19.90;99.90
14682;DHT22;7429;52.498;13.480;2022-08-03T01:39:41;19.90;99.90
14682;DHT22;7429;52.498;13.480;2022-08-03T01:42:45;19.90;99.90
14682;DHT22;7429;52.498;13.480;2022-08-03T01:45:51;19.90;99.90
14682;DHT22;7429;52.498;13.480;2022-08-03T01:48:56;19.90;99.90
14682;DHT22;7429;52.498;13.480;2022-08-03T01:52:01;19.90;99.90
14682;DHT22;7429;52.498;13.480;2022-08-03T01:55:07;19.90;99.90
14682;DHT22;7429;52.498;13.480;2022-08-03T01:58:12;19.90;99.90
14682;DHT22;7429;52.498;13.480;2022-08-03T02:01:19;20.00;99.90
14682;DHT22;7429;52.498;13.480;2022-08-03T02:04:24;20.10;99.90
14682;DHT22;7429;52.498;13.480;2022-08-03T02:07:31;20.10;99.90
14682;DHT22;7429;52.498;13.480;2022-08-03T02:10:36;20.10;99.90
14682;DHT22;7429;52.498;13.480;2022-08-03T02:13:40;20.10;99.90
14682;DHT22;7429;52.498;13.480;2022-08-03T02:16:46;20.10;99.90
14682;DHT22;7429;52.498;13.480;2022-08-03T02:19:51;20.20;99.90
14682;DHT22;7429;52.498;13.480;2022-08-03T02:22:55;20.20;99.90
14682;DHT22;7429;52.498;13.480;2022-08-03T02:26:02;20.20;99.90
14682;DHT22;7429;52.498;13.480;2022-08-03T02:29:12;20.20;99.90
14682;DHT22;7429;52.498;13.480;2022-08-03T02:32:47;20.20;99.90
14682;DHT22;7429;52.498;13.480;2022-08-03T02:35:54;20.20;99.90
14682;DHT22;7429;52.498;13.480;2022-08-03T02:38:59;20.20;99.90
14682;DHT22;7429;52.498;13.480;2022-08-03T02:42:05;20.20;99.90
14682;DHT22;7429;52.498;13.480;2022-08-03T02:45:13;20.20;99.90
14682;DHT22;7429;52.498;13.480;2022-08-03T02:48:22;20.30;99.90
14682;DHT22;7429;52.498;13.480;2022-08-03T02:51:29;20.30;99.90
14682;DHT22;7429;52.498;13.480;2022-08-03T02:54:34;20.30;99.90
14682;DHT22;7429;52.498;13.480;2022-08-03T02:57:38;20.30;99.90
14682;DHT22;7429;52.498;13.480;2022-08-03T03:00:43;20.30;99.90
14682;DHT22;7429;52.498;13.480;2022-08-03T03:03:48;20.30;99.90
14682;DHT22;7429;52.498;13.480;2022-08-03T03:06:53;20.30;99.90
14682;DHT22;7429;52.498;13.480;2022-08-03T03:09:58;20.30;99.90
14682;DHT22;7429;52.498;13.480;2022-08-03T03:13:02;20.20;99.90
14682;DHT22;7429;52.498;13.480;2022-08-03T03:16:06;20.20;99.90
14682;DHT22;7429;52.498;13.480;2022-08-03T03:19:14;20.20;99.90
14682;DHT22;7429;52.498;13.480;2022-08-03T03:22:19;20.20;99.90
14682;DHT22;7429;52.498;13.480;2022-08-03T03:25:23;20.10;99.90
14682;DHT22;7429;52.498;13.480;2022-08-03T03:28:28;20.10;99.90
14682;DHT22;7429;52.498;13.480;2022-08-03T03:31:32;20.10;99.90
14682;DHT22;7429;52.498;13.480;2022-08-03T03:34:38;19.90;99.90
14682;DHT22;7429;52.498;13.480;2022-08-03T03:37:45;19.90;99.90
14682;DHT22;7429;52.498;13.480;2022-08-03T03:40:48;19.90;99.90
14682;DHT22;7429;52.498;13.480;2022-08-03T03:43:51;19.90;99.90
14682;DHT22;7429;52.498;13.480;2022-08-03T03:46:54;19.90;99.90
14682;DHT22;7429;52.498;13.480;2022-08-03T03:49:59;19.90;99.90
14682;DHT22;7429;52.498;13.480;2022-08-03T03:53:03;19.90;99.90
14682;DHT22;7429;52.498;13.480;2022-08-03T03:56:10;19.90;99.90
14682;DHT22;7429;52.498;13.480;2022-08-03T03:59:13;19.90;99.90
14682;DHT22;7429;52.498;13.480;2022-08-03T04:02:16;19.90;99.90
14682;DHT22;7429;52.498;13.480;2022-08-03T04:05:21;19.90;99.90
14682;DHT22;7429;52.498;13.480;2022-08-03T04:08:46;19.90;99.90
14682;DHT22;7429;52.498;13.480;2022-08-03T04:12:07;19.80;99.90
14682;DHT22;7429;52.498;13.480;2022-08-03T04:15:11;19.80;99.90
14682;DHT22;7429;52.498;13.480;2022-08-03T04:18:16;19.70;99.90
14682;DHT22;7429;52.498;13.480;2022-08-03T04:21:22;19.70;99.90
14682;DHT22;7429;52.498;13.480;2022-08-03T04:24:29;19.70;99.90
14682;DHT22;7429;52.498;13.480;2022-08-03T04:27:37;19.70;99.90
14682;DHT22;7429;52.498;13.480;2022-08-03T04:30:44;19.70;99.90
14682;DHT22;7429;52.498;13.480;2022-08-03T04:33:51;19.70;99.90
14682;DHT22;7429;52.498;13.480;2022-08-03T04:36:58;19.70;99.90
14682;DHT22;7429;52.498;13.480;2022-08-03T04:40:06;19.70;99.90
14682;DHT22;7429;52.498;13.480;2022-08-03T04:43:12;19.80;99.90
14682;DHT22;7429;52.498;13.480;2022-08-03T04:46:18;19.80;99.90
14682;DHT22;7429;52.498;13.480;2022-08-03T04:49:22;19.80;99.90
14682;DHT22;7429;52.498;13.480;2022-08-03T04:52:27;19.80;99.90
14682;DHT22;7429;52.498;13.480;2022-08-03T04:55:32;19.90;99.90
14682;DHT22;7429;52.498;13.480;2022-08-03T04:58:36;19.90;99.90
14682;DHT22;7429;52.498;13.480;2022-08-03T05:01:39;20.00;99.90
14682;DHT22;7429;52.498;13.480;2022-08-03T05:04:43;20.00;99.90
14682;DHT22;7429;52.498;13.480;2022-08-03T05:07:48;20.10;99.90
14682;DHT22;7429;52.498;13.480;2022-08-03T05:10:51;20.30;99.90
14682;DHT22;7429;52.498;13.480;2022-08-03T05:13:55;20.30;99.90
14682;DHT22;7429;52.498;13.480;2022-08-03T05:16:58;20.30;99.90
14682;DHT22;7429;52.498;13.480;2022-08-03T05:20:01;20.40;99.90
14682;DHT22;7429;52.498;13.480;2022-08-03T05:23:07;20.40;99.90
14682;DHT22;7429;52.498;13.480;2022-08-03T05:26:10;20.50;99.90
14682;DHT22;7429;52.498;13.480;2022-08-03T05:29:13;20.60;99.90
14682;DHT22;7429;52.498;13.480;2022-08-03T05:32:17;20.60;99.90
14682;DHT22;7429;52.498;13.480;2022-08-03T05:35:21;20.70;99.90
14682;DHT22;7429;52.498;13.480;2022-08-03T05:38:49;20.80;99.90
14682;DHT22;7429;52.498;13.480;2022-08-03T05:41:54;21.00;99.90
14682;DHT22;7429;52.498;13.480;2022-08-03T05:44:57;21.00;99.90
14682;DHT22;7429;52.498;13.480;2022-08-03T05:48:00;21.20;99.90
14682;DHT22;7429;52.498;13.480;2022-08-03T05:51:03;21.30;99.90
14682;DHT22;7429;52.498;13.480;2022-08-03T05:54:09;21.40;99.90
14682;DHT22;7429;52.498;13.480;2022-08-03T05:57:12;21.50;99.90
14682;DHT22;7429;52.498;13.480;2022-08-03T06:00:16;21.60;99.90
14682;DHT22;7429;52.498;13.480;2022-08-03T06:03:19;21.60;99.90
14682;DHT22;7429;52.498;13.480;2022-08-03T06:06:23;21.70;99.90
14682;DHT22;7429;52.498;13.480;2022-08-03T06:09:33;21.80;99.90
14682;DHT22;7429;52.498;13.480;2022-08-03T06:12:56;22.00;99.90
14682;DHT22;7429;52.498;13.480;2022-08-03T06:16:00;22.20;99.90
14682;DHT22;7429;52.498;13.480;2022-08-03T06:19:03;22.30;99.90
14682;DHT22;7429;52.498;13.480;2022-08-03T06:22:06;22.40;99.90
14682;DHT22;7429;52.498;13.480;2022-08-03T06:25:10;22.60;99.90
14682;DHT22;7429;52.498;13.480;2022-08-03T06:28:15;22.70;99.90
14682;DHT22;7429;52.498;13.480;2022-08-03T06:31:38;22.80;99.90
14682;DHT22;7429;52.498;13.480;2022-08-03T06:34:41;22.90;99.90
14682;DHT22;7429;52.498;13.480;2022-08-03T06:37:46;23.10;99.90
14682;DHT22;7429;52.498;13.480;2022-08-03T06:40:51;23.20;99.90
14682;DHT22;7429;52.498;13.480;2022-08-03T06:43:55;23.40;99.90
14682;DHT22;7429;52.498;13.480;2022-08-03T06:47:05;23.60;99.90
14682;DHT22;7429;52.498;13.480;2022-08-03T06:50:09;23.80;99.90
14682;DHT22;7429;52.498;13.480;2022-08-03T06:53:17;24.00;99.90
14682;DHT22;7429;52.498;13.480;2022-08-03T06:56:23;24.20;99.90
14682;DHT22;7429;52.498;13.480;2022-08-03T06:59:26;24.30;99.90
14682;DHT22;7429;52.498;13.480;2022-08-03T07:02:50;24.40;99.90
14682;DHT22;7429;52.498;13.480;2022-08-03T07:05:59;24.60;99.90
14682;DHT22;7429;52.498;13.480;2022-08-03T07:09:04;24.70;99.90
14682;DHT22;7429;52.498;13.480;2022-08-03T07:12:09;24.80;99.90
14682;DHT22;7429;52.498;13.480;2022-08-03T07:15:14;24.90;99.90
14682;DHT22;7429;52.498;13.480;2022-08-03T07:18:39;25.10;99.90
14682;DHT22;7429;52.498;13.480;2022-08-03T07:21:42;25.30;99.90
14682;DHT22;7429;52.498;13.480;2022-08-03T07:24:46;25.50;99.90
14682;DHT22;7429;52.498;13.480;2022-08-03T07:27:51;25.60;99.90
14682;DHT22;7429;52.498;13.480;2022-08-03T07:30:56;25.80;99.90
14682;DHT22;7429;52.498;13.480;2022-08-03T07:34:00;26.00;99.90
14682;DHT22;7429;52.498;13.480;2022-08-03T07:37:03;26.10;99.90
14682;DHT22;7429;52.498;13.480;2022-08-03T07:40:06;26.30;99.90
14682;DHT22;7429;52.498;13.480;2022-08-03T07:43:12;26.40;99.90
14682;DHT22;7429;52.498;13.480;2022-08-03T07:46:15;26.70;99.90
14682;DHT22;7429;52.498;13.480;2022-08-03T07:49:18;26.90;99.90
14682;DHT22;7429;52.498;13.480;2022-08-03T07:52:21;27.00;99.90
14682;DHT22;7429;52.498;13.480;2022-08-03T07:55:42;27.10;99.90
14682;DHT22;7429;52.498;13.480;2022-08-03T07:58:46;27.30;99.90
14682;DHT22;7429;52.498;13.480;2022-08-03T08:01:49;27.50;99.90
14682;DHT22;7429;52.498;13.480;2022-08-03T08:04:54;27.70;99.90
14682;DHT22;7429;52.498;13.480;2022-08-03T08:07:57;27.80;99.90
14682;DHT22;7429;52.498;13.480;2022-08-03T08:11:00;28.10;99.90
14682;DHT22;7429;52.498;13.480;2022-08-03T08:14:04;28.20;99.90
14682;DHT22;7429;52.498;13.480;2022-08-03T08:17:08;28.30;99.90
14682;DHT22;7429;52.498;13.480;2022-08-03T08:20:15;28.40;99.90
14682;DHT22;7429;52.498;13.480;2022-08-03T08:23:31;28.60;99.90
14682;DHT22;7429;52.498;13.480;2022-08-03T08:26:44;28.80;99.90
14682;DHT22;7429;52.498;13.480;2022-08-03T08:29:48;28.90;99.90
14682;DHT22;7429;52.498;13.480;2022-08-03T08:32:57;29.00;99.90
14682;DHT22;7429;52.498;13.480;2022-08-03T08:36:01;29.10;99.90
14682;DHT22;7429;52.498;13.480;2022-08-03T08:39:04;29.20;99.90
14682;DHT22;7429;52.498;13.480;2022-08-03T08:42:08;29.30;99.90
14682;DHT22;7429;52.498;13.480;2022-08-03T08:45:13;29.40;99.90
14682;DHT22;7429;52.498;13.480;2022-08-03T08:48:19;29.50;99.90
14682;DHT22;7429;52.498;13.480;2022-08-03T08:51:28;29.60;99.90
14682;DHT22;7429;52.498;13.480;2022-08-03T08:54:57;29.70;99.90
14682;DHT22;7429;52.498;13.480;2022-08-03T08:58:04;29.80;99.90
14682;DHT22;7429;52.498;13.480;2022-08-03T09:01:09;30.10;99.90
14682;DHT22;7429;52.498;13.480;2022-08-03T09:04:12;30.20;99.90
14682;DHT22;7429;52.498;13.480;2022-08-03T09:07:15;30.30;99.90
14682;DHT22;7429;52.498;13.480;2022-08-03T09:10:29;30.50;99.90
14682;DHT22;7429;52.498;13.480;2022-08-03T09:13:34;30.60;99.90
14682;DHT22;7429;52.498;13.480;2022-08-03T09:16:54;30.60;99.90
14682;DHT22;7429;52.498;13.480;2022-08-03T09:20:06;30.70;99.90
14682;DHT22;7429;52.498;13.480;2022-08-03T09:23:10;30.90;99.90
14682;DHT22;7429;52.498;13.480;2022-08-03T09:26:35;31.00;99.90
14682;DHT22;7429;52.498;13.480;2022-08-03T09:29:38;31.10;99.90
14682;DHT22;7429;52.498;13.480;2022-08-03T09:32:46;31.20;99.90
14682;DHT22;7429;52.498;13.480;2022-08-03T09:35:51;31.30;99.90
14682;DHT22;7429;52.498;13.480;2022-08-03T09:39:00;31.30;99.90
14682;DHT22;7429;52.498;13.480;2022-08-03T09:42:07;31.50;99.90
14682;DHT22;7429;52.498;13.480;2022-08-03T09:45:25;31.60;99.90
14682;DHT22;7429;52.498;13.480;2022-08-03T09:48:31;31.80;99.90
14682;DHT22;7429;52.498;13.480;2022-08-03T09:51:35;31.90;99.90
14682;DHT22;7429;52.498;13.480;2022-08-03T09:54:59;31.80;99.90
14682;DHT22;7429;52.498;13.480;2022-08-03T09:58:04;31.90;99.90
14682;DHT22;7429;52.498;13.480;2022-08-03T10:01:10;32.10;99.90
14682;DHT22;7429;52.498;13.480;2022-08-03T10:04:26;32.10;99.90
14682;DHT22;7429;52.498;13.480;2022-08-03T10:07:41;32.20;99.90
14682;DHT22;7429;52.498;13.480;2022-08-03T10:10:48;32.20;99.90
14682;DHT22;7429;52.498;13.480;2022-08-03T10:13:54;32.40;99.90
14682;DHT22;7429;52.498;13.480;2022-08-03T10:17:02;32.40;99.90
14682;DHT22;7429;52.498;13.480;2022-08-03T10:20:08;32.10;99.90
14682;DHT22;7429;52.498;13.480;2022-08-03T10:23:13;32.30;99.90
14682;DHT22;7429;52.498;13.480;2022-08-03T10:26:21;32.50;99.90
14682;DHT22;7429;52.498;13.480;2022-08-03T10:29:27;32.70;99.90
14682;DHT22;7429;52.498;13.480;2022-08-03T10:32:34;32.70;99.90
14682;DHT22;7429;52.498;13.480;2022-08-03T10:35:43;32.80;99.90
14682;DHT22;7429;52.498;13.480;2022-08-03T10:38:50;33.00;99.90
14682;DHT22;7429;52.498;13.480;2022-08-03T10:41:55;33.10;99.90
14682;DHT22;7429;52.498;13.480;2022-08-03T10:45:05;33.20;99.90
14682;DHT22;7429;52.498;13.480;2022-08-03T10:48:11;33.30;99.90
14682;DHT22;7429;52.498;13.480;2022-08-03T10:51:16;33.40;99.90
14682;DHT22;7429;52.498;13.480;2022-08-03T10:54:40;33.40;99.90
14682;DHT22;7429;52.498;13.480;2022-08-03T10:58:04;33.60;99.90
14682;DHT22;7429;52.498;13.480;2022-08-03T11:01:12;33.80;99.90
14682;DHT22;7429;52.498;13.480;2022-08-03T11:04:18;34.00;99.90
14682;DHT22;7429;52.498;13.480;2022-08-03T11:07:24;34.30;99.90
14682;DHT22;7429;52.498;13.480;2022-08-03T11:10:29;34.60;99.90
14682;DHT22;7429;52.498;13.480;2022-08-03T11:13:32;34.90;99.90
14682;DHT22;7429;52.498;13.480;2022-08-03T11:16:37;35.00;99.90
14682;DHT22;7429;52.498;13.480;2022-08-03T11:19:43;35.00;99.90
14682;DHT22;7429;52.498;13.480;2022-08-03T11:23:00;35.20;99.90
14682;DHT22;7429;52.498;13.480;2022-08-03T11:26:11;35.40;99.90
14682;DHT22;7429;52.498;13.480;2022-08-03T11:29:26;35.40;99.70
14682;DHT22;7429;52.498;13.480;2022-08-03T11:32:50;35.40;99.90
14682;DHT22;7429;52.498;13.480;2022-08-03T11:36:00;35.20;99.60
14682;DHT22;7429;52.498;13.480;2022-08-03T11:39:14;35.30;99.90
14682;DHT22;7429;52.498;13.480;2022-08-03T11:42:39;35.40;99.20
14682;DHT22;7429;52.498;13.480;2022-08-03T11:45:56;35.20;99.90
14682;DHT22;7429;52.498;13.480;2022-08-03T11:49:04;35.40;99.60
14682;DHT22;7429;52.498;13.480;2022-08-03T11:52:12;35.50;99.10
14682;DHT22;7429;52.498;13.480;2022-08-03T11:55:18;35.70;99.30
14682;DHT22;7429;52.498;13.480;2022-08-03T11:58:23;35.60;98.50
14682;DHT22;7429;52.498;13.480;2022-08-03T12:01:46;35.30;98.20
14682;DHT22;7429;52.498;13.480;2022-08-03T12:04:49;35.60;99.40
14682;DHT22;7429;52.498;13.480;2022-08-03T12:07:52;35.90;99.70
14682;DHT22;7429;52.498;13.480;2022-08-03T12:11:09;36.20;97.90
14682;DHT22;7429;52.498;13.480;2022-08-03T12:14:15;36.30;98.00
14682;DHT22;7429;52.498;13.480;2022-08-03T12:17:39;36.30;98.50
14682;DHT22;7429;52.498;13.480;2022-08-03T12:20:43;36.30;98.30
14682;DHT22;7429;52.498;13.480;2022-08-03T12:23:47;36.50;97.80
14682;DHT22;7429;52.498;13.480;2022-08-03T12:26:51;36.70;97.60
14682;DHT22;7429;52.498;13.480;2022-08-03T12:30:01;36.60;97.60
14682;DHT22;7429;52.498;13.480;2022-08-03T12:33:16;36.60;97.50
14682;DHT22;7429;52.498;13.480;2022-08-03T12:36:25;36.70;97.50
14682;DHT22;7429;52.498;13.480;2022-08-03T12:39:31;37.00;97.70
14682;DHT22;7429;52.498;13.480;2022-08-03T12:42:36;36.90;97.80
14682;DHT22;7429;52.498;13.480;2022-08-03T12:45:40;36.90;97.40
14682;DHT22;7429;52.498;13.480;2022-08-03T12:49:05;36.90;97.50
14682;DHT22;7429;52.498;13.480;2022-08-03T12:52:10;37.00;97.30
14682;DHT22;7429;52.498;13.480;2022-08-03T12:55:18;37.10;96.70
14682;DHT22;7429;52.498;13.480;2022-08-03T12:58:30;37.50;96.80
14682;DHT22;7429;52.498;13.480;2022-08-03T13:01:36;37.60;97.00
14682;DHT22;7429;52.498;13.480;2022-08-03T13:04:55;37.90;95.60
14682;DHT22;7429;52.498;13.480;2022-08-03T13:08:00;37.80;96.50
14682;DHT22;7429;52.498;13.480;2022-08-03T13:11:20;37.60;96.20
14682;DHT22;7429;52.498;13.480;2022-08-03T13:14:47;37.50;96.50
14682;DHT22;7429;52.498;13.480;2022-08-03T13:17:51;37.50;96.30
14682;DHT22;7429;52.498;13.480;2022-08-03T13:20:55;37.60;96.10
14682;DHT22;7429;52.498;13.480;2022-08-03T13:23:58;37.70;95.90
14682;DHT22;7429;52.498;13.480;2022-08-03T13:27:02;38.10;96.00
14682;DHT22;7429;52.498;13.480;2022-08-03T13:30:28;38.30;95.60
14682;DHT22;7429;52.498;13.480;2022-08-03T13:33:32;38.60;96.10
14682;DHT22;7429;52.498;13.480;2022-08-03T13:36:35;38.50;95.90
14682;DHT22;7429;52.498;13.480;2022-08-03T13:39:58;38.50;95.20
14682;DHT22;7429;52.498;13.480;2022-08-03T13:43:04;38.80;95.10
14682;DHT22;7429;52.498;13.480;2022-08-03T13:46:08;38.90;94.30
14682;DHT22;7429;52.498;13.480;2022-08-03T13:49:11;39.10;95.00
14682;DHT22;7429;52.498;13.480;2022-08-03T13:52:14;39.00;95.10
14682;DHT22;7429;52.498;13.480;2022-08-03T13:55:18;39.20;94.70
14682;DHT22;7429;52.498;13.480;2022-08-03T13:58:21;39.30;94.90
14682;DHT22;7429;52.498;13.480;2022-08-03T14:01:26;39.40;94.90
14682;DHT22;7429;52.498;13.480;2022-08-03T14:04:49;39.50;94.90
14682;DHT22;7429;52.498;13.480;2022-08-03T14:07:52;39.00;93.80
14682;DHT22;7429;52.498;13.480;2022-08-03T14:11:05;38.90;94.50
14682;DHT22;7429;52.498;13.480;2022-08-03T14:14:08;39.00;93.60
14682;DHT22;7429;52.498;13.480;2022-08-03T14:17:12;38.50;93.50
14682;DHT22;7429;52.498;13.480;2022-08-03T14:20:17;38.60;93.70
14682;DHT22;7429;52.498;13.480;2022-08-03T14:23:39;38.90;94.00
14682;DHT22;7429;52.498;13.480;2022-08-03T14:26:42;39.40;93.80
14682;DHT22;7429;52.498;13.480;2022-08-03T14:29:45;39.80;93.90
14682;DHT22;7429;52.498;13.480;2022-08-03T14:32:50;40.00;93.40
14682;DHT22;7429;52.498;13.480;2022-08-03T14:35:53;39.90;92.30
14682;DHT22;7429;52.498;13.480;2022-08-03T14:38:56;40.00;92.70
14682;DHT22;7429;52.498;13.480;2022-08-03T14:42:03;40.30;93.20
14682;DHT22;7429;52.498;13.480;2022-08-03T14:45:07;40.50;91.80
14682;DHT22;7429;52.498;13.480;2022-08-03T14:48:23;39.80;92.00
14682;DHT22;7429;52.498;13.480;2022-08-03T14:51:47;39.90;92.70
14682;DHT22;7429;52.498;13.480;2022-08-03T14:54:54;40.20;92.40
14682;DHT22;7429;52.498;13.480;2022-08-03T14:57:57;40.30;92.50
14682;DHT22;7429;52.498;13.480;2022-08-03T15:01:03;40.20;92.40
14682;DHT22;7429;52.498;13.480;2022-08-03T15:04:29;40.30;91.90
14682;DHT22;7429;52.498;13.480;2022-08-03T15:07:32;40.30;91.80
14682;DHT22;7429;52.498;13.480;2022-08-03T15:10:36;40.20;91.90
14682;DHT22;7429;52.498;13.480;2022-08-03T15:13:46;40.20;91.80
14682;DHT22;7429;52.498;13.480;2022-08-03T15:16:49;39.80;92.10
14682;DHT22;7429;52.498;13.480;2022-08-03T15:19:53;39.40;92.00
14682;DHT22;7429;52.498;13.480;2022-08-03T15:23:18;39.30;91.60
14682;DHT22;7429;52.498;13.480;2022-08-03T15:26:21;39.50;91.40
14682;DHT22;7429;52.498;13.480;2022-08-03T15:29:34;39.20;92.00
14682;DHT22;7429;52.498;13.480;2022-08-03T15:32:57;39.20;91.30
14682;DHT22;7429;52.498;13.480;2022-08-03T15:36:02;39.20;91.90
14682;DHT22;7429;52.498;13.480;2022-08-03T15:39:06;39.20;92.30
14682;DHT22;7429;52.498;13.480;2022-08-03T15:42:09;38.80;92.20
14682;DHT22;7429;52.498;13.480;2022-08-03T15:45:12;38.60;92.40
14682;DHT22;7429;52.498;13.480;2022-08-03T15:48:18;38.80;92.50
14682;DHT22;7429;52.498;13.480;2022-08-03T15:51:28;38.90;92.40
14682;DHT22;7429;52.498;13.480;2022-08-03T15:54:31;39.10;92.00
14682;DHT22;7429;52.498;13.480;2022-08-03T15:57:34;39.20;92.10
14682;DHT22;7429;52.498;13.480;2022-08-03T16:00:59;39.30;91.20
14682;DHT22;7429;52.498;13.480;2022-08-03T16:04:03;38.90;91.40
14682;DHT22;7429;52.498;13.480;2022-08-03T16:07:08;38.30;93.00
14682;DHT22;7429;52.498;13.480;2022-08-03T16:10:15;38.50;92.80
14682;DHT22;7429;52.498;13.480;2022-08-03T16:13:18;38.70;92.40
14682;DHT22;7429;52.498;13.480;2022-08-03T16:16:21;38.80;92.00
14682;DHT22;7429;52.498;13.480;2022-08-03T16:19:25;38.60;92.50
14682;DHT22;7429;52.498;13.480;2022-08-03T16:22:30;38.40;92.20
14682;DHT22;7429;52.498;13.480;2022-08-03T16:25:33;38.10;92.10
14682;DHT22;7429;52.498;13.480;2022-08-03T16:28:36;37.70;91.80
14682;DHT22;7429;52.498;13.480;2022-08-03T16:31:39;37.40;93.00
14682;DHT22;7429;52.498;13.480;2022-08-03T16:34:52;37.20;93.70
14682;DHT22;7429;52.498;13.480;2022-08-03T16:37:57;37.00;92.60
14682;DHT22;7429;52.498;13.480;2022-08-03T16:41:00;36.80;94.60
14682;DHT22;7429;52.498;13.480;2022-08-03T16:44:05;36.70;95.20
14682;DHT22;7429;52.498;13.480;2022-08-03T16:47:10;36.60;95.10
14682;DHT22;7429;52.498;13.480;2022-08-03T16:50:23;36.20;97.50
14682;DHT22;7429;52.498;13.480;2022-08-03T16:53:27;36.10;97.00
14682;DHT22;7429;52.498;13.480;2022-08-03T16:56:50;35.90;94.30
14682;DHT22;7429;52.498;13.480;2022-08-03T16:59:54;35.70;96.30
14682;DHT22;7429;52.498;13.480;2022-08-03T17:02:59;35.60;97.30
14682;DHT22;7429;52.498;13.480;2022-08-03T17:06:06;35.30;97.90
14682;DHT22;7429;52.498;13.480;2022-08-03T17:09:12;35.20;99.10
14682;DHT22;7429;52.498;13.480;2022-08-03T17:12:18;34.90;96.60
14682;DHT22;7429;52.498;13.480;2022-08-03T17:15:22;34.70;97.90
14682;DHT22;7429;52.498;13.480;2022-08-03T17:18:50;34.50;96.80
14682;DHT22;7429;52.498;13.480;2022-08-03T17:22:00;34.30;97.00
14682;DHT22;7429;52.498;13.480;2022-08-03T17:25:08;34.20;99.90
14682;DHT22;7429;52.498;13.480;2022-08-03T17:28:23;34.10;99.30
14682;DHT22;7429;52.498;13.480;2022-08-03T17:31:51;33.80;99.90
14682;DHT22;7429;52.498;13.480;2022-08-03T17:34:55;33.60;99.90
14682;DHT22;7429;52.498;13.480;2022-08-03T17:37:58;33.30;99.90
14682;DHT22;7429;52.498;13.480;2022-08-03T17:41:06;33.10;99.90
14682;DHT22;7429;52.498;13.480;2022-08-03T17:44:12;32.70;99.90
14682;DHT22;7429;52.498;13.480;2022-08-03T17:47:35;32.50;99.90
14682;DHT22;7429;52.498;13.480;2022-08-03T17:50:49;32.30;99.90
14682;DHT22;7429;52.498;13.480;2022-08-03T17:54:02;32.20;99.90
14682;DHT22;7429;52.498;13.480;2022-08-03T17:57:25;32.10;99.90
14682;DHT22;7429;52.498;13.480;2022-08-03T18:00:53;31.90;99.90
14682;DHT22;7429;52.498;13.480;2022-08-03T18:04:39;31.90;99.90
14682;DHT22;7429;52.498;13.480;2022-08-03T18:07:57;31.70;99.90
14682;DHT22;7429;52.498;13.480;2022-08-03T18:11:04;31.50;99.90
14682;DHT22;7429;52.498;13.480;2022-08-03T18:14:27;31.40;99.90
14682;DHT22;7429;52.498;13.480;2022-08-03T18:17:37;31.30;99.90
14682;DHT22;7429;52.498;13.480;2022-08-03T18:21:04;31.10;99.90
14682;DHT22;7429;52.498;13.480;2022-08-03T18:24:18;31.00;99.90
14682;DHT22;7429;52.498;13.480;2022-08-03T18:27:26;30.90;99.90
14682;DHT22;7429;52.498;13.480;2022-08-03T18:30:48;30.70;99.90
14682;DHT22;7429;52.498;13.480;2022-08-03T18:33:56;30.50;99.90
14682;DHT22;7429;52.498;13.480;2022-08-03T18:37:23;30.40;99.90
14682;DHT22;7429;52.498;13.480;2022-08-03T18:40:27;30.20;99.90
14682;DHT22;7429;52.498;13.480;2022-08-03T18:43:30;30.00;99.90
14682;DHT22;7429;52.498;13.480;2022-08-03T18:47:06;29.90;99.90
14682;DHT22;7429;52.498;13.480;2022-08-03T18:50:22;29.70;99.90
14682;DHT22;7429;52.498;13.480;2022-08-03T18:53:34;29.50;99.90
14682;DHT22;7429;52.498;13.480;2022-08-03T18:57:05;29.40;99.90
14682;DHT22;7429;52.498;13.480;2022-08-03T19:00:11;29.30;99.90
14682;DHT22;7429;52.498;13.480;2022-08-03T19:03:22;29.10;99.90
14682;DHT22;7429;52.498;13.480;2022-08-03T19:06:47;29.00;99.90
14682;DHT22;7429;52.498;13.480;2022-08-03T19:09:57;28.90;99.90
14682;DHT22;7429;52.498;13.480;2022-08-03T19:13:08;28.80;99.90
14682;DHT22;7429;52.498;13.480;2022-08-03T19:16:20;28.70;99.90
14682;DHT22;7429;52.498;13.480;2022-08-03T19:19:28;28.50;99.90
14682;DHT22;7429;52.498;13.480;2022-08-03T19:22:46;28.40;99.90
14682;DHT22;7429;52.498;13.480;2022-08-03T19:25:49;28.30;99.90
14682;DHT22;7429;52.498;13.480;2022-08-03T19:28:55;28.10;99.90
14682;DHT22;7429;52.498;13.480;2022-08-03T19:32:00;28.00;99.90
14682;DHT22;7429;52.498;13.480;2022-08-03T19:35:06;27.90;99.90
14682;DHT22;7429;52.498;13.480;2022-08-03T19:38:15;27.80;99.90
14682;DHT22;7429;52.498;13.480;2022-08-03T19:41:33;27.70;99.90
14682;DHT22;7429;52.498;13.480;2022-08-03T19:44:49;27.60;99.90
14682;DHT22;7429;52.498;13.480;2022-08-03T19:47:59;27.50;99.90
14682;DHT22;7429;52.498;13.480;2022-08-03T19:51:12;27.40;99.90